Time;durP1;ratioP1;P1;durP2;ratioP2;P2;SDS_P1;SDS_P2;PMS_P1;PMS_P2;Temp;Humidity;BMP_temperature;BMP_pressure;BME280_temperature;BME280_humidity;BME280_pressure;Samples;Min_cycle;Max_cycle;Signal;HPM_P1;HPM_P2
2023/05/10 00:02:13;;;;;;;3.45;1.58;;;;;;;14.78;98.29;100589.81;7360684;19;20022;-64
2023/05/10 00:04:40;;;;;;;5.63;1.50;;;;;;;14.77;98.87;100588.19;7360978;19;20023;-64
2023/05/10 00:07:07;;;;;;;4.07;1.50;;;;;;;14.77;98.87;100583.69;7362024;19;20601;-64
2023/05/10 00:09:37;;;;;;;5.85;1.85;;;;;;;14.75;99.14;100590.19;7360941;19;20137;-64
2023/05/10 00:12:05;;;;;;;5.40;1.70;;;;;;;14.75;99.29;100591.00;7361728;19;20015;-64
2023/05/10 00:14:32;;;;;;;4.38;1.55;;;;;;;14.75;99.26;100590.19;7358958;19;20018;-64
2023/05/10 00:16:59;;;;;;;7.78;1.33;;;;;;;14.73;99.19;100592.22;7358693;19;20449;-68
2023/05/10 00:19:27;;;;;;;4.28;1.70;;;;;;;14.71;99.11;100592.38;7360215;19;20019;-65
2023/05/10 00:21:54;;;;;;;4.53;1.90;;;;;;;14.71;99.97;100595.03;7359519;19;20045;-64
2023/05/10 00:24:21;;;;;;;4.97;1.50;;;;;;;14.73;99.71;100597.50;7356302;19;20097;-65
2023/05/10 00:26:48;;;;;;;4.65;1.63;;;;;;;14.74;99.73;100592.00;7360674;19;20021;-63
2023/05/10 00:29:15;;;;;;;5.22;2.20;;;;;;;14.76;100.00;100603.25;7359637;19;20032;-65
2023/05/10 00:31:42;;;;;;;6.35;1.85;;;;;;;14.78;100.00;100600.41;7360164;19;20011;-64
2023/05/10 00:34:09;;;;;;;8.20;2.60;;;;;;;14.78;100.00;100603.06;7359500;19;20852;-65
2023/05/10 00:36:36;;;;;;;6.85;2.40;;;;;;;14.77;99.54;100604.06;7357127;19;20031;-64
2023/05/10 00:39:03;;;;;;;6.72;2.30;;;;;;;14.77;100.00;100602.25;7357949;19;20022;-65
2023/05/10 00:41:33;;;;;;;6.25;2.70;;;;;;;14.78;100.00;100609.16;7360092;19;20030;-64
2023/05/10 00:44:04;;;;;;;37.17;3.75;;;;;;;14.76;99.93;100603.25;7360831;19;20110;-64
2023/05/10 00:46:31;;;;;;;6.20;2.40;;;;;;;14.72;99.57;100598.50;7356525;19;20025;-63
2023/05/10 00:49:01;;;;;;;36.80;4.30;;;;;;;14.73;100.00;100600.16;7357480;19;20021;-64
2023/05/10 00:51:31;;;;;;;6.22;2.47;;;;;;;14.69;100.00;100601.50;7357182;19;20118;-64
2023/05/10 00:53:58;;;;;;;4.63;2.28;;;;;;;14.71;100.00;100596.84;7357443;19;20010;-63
2023/05/10 00:56:26;;;;;;;4.72;2.22;;;;;;;14.71;100.00;100600.31;7357959;19;20022;-65
2023/05/10 00:58:53;;;;;;;5.68;2.30;;;;;;;14.72;100.00;100603.81;7358830;19;20014;-64
2023/05/10 01:01:20;;;;;;;8.00;3.10;;;;;;;14.73;100.00;100606.25;7357967;19;20698;-64
2023/05/10 01:03:48;;;;;;;7.47;3.33;;;;;;;14.69;99.95;100606.81;7359210;19;20034;-64
2023/05/10 01:06:15;;;;;;;7.53;2.47;;;;;;;14.68;100.00;100611.28;7360315;19;20029;-65
2023/05/10 01:08:42;;;;;;;7.20;2.97;;;;;;;14.69;99.90;100610.28;7357078;19;21019;-64
2023/05/10 01:11:10;;;;;;;9.23;2.83;;;;;;;14.69;100.00;100610.28;7357637;19;20018;-64
2023/05/10 01:13:42;;;;;;;10.13;3.22;;;;;;;14.68;100.00;100613.91;7357626;19;20121;-64
2023/05/10 01:16:09;;;;;;;7.18;2.78;;;;;;;14.69;100.00;100615.56;7357459;19;20665;-64
2023/05/10 01:18:40;;;;;;;7.32;2.90;;;;;;;14.71;100.00;100620.69;7356828;19;20622;-64
2023/05/10 01:21:22;;;;;;;6.10;2.72;;;;;;;14.72;100.00;100614.41;7356745;19;20026;-64
2023/05/10 01:24:09;;;;;;;6.97;2.83;;;;;;;14.69;100.00;100618.22;7357508;19;20010;-64
2023/05/10 01:26:49;;;;;;;8.85;2.58;;;;;;;14.65;100.00;100621.44;7359078;19;20752;-63
2023/05/10 01:29:25;;;;;;;7.00;3.13;;;;;;;14.62;100.00;100619.97;7361070;19;20015;-62
2023/05/10 01:32:12;;;;;;;6.53;2.70;;;;;;;14.60;100.00;100619.34;7358090;19;20454;-64
2023/05/10 01:34:53;;;;;;;8.20;3.20;;;;;;;14.60;100.00;100615.84;7356000;19;20038;-63
2023/05/10 01:37:28;;;;;;;26.27;3.35;;;;;;;14.62;100.00;100617.34;7362532;19;20014;-64
2023/05/10 01:40:02;;;;;;;5.15;2.60;;;;;;;14.63;100.00;100618.94;7363784;19;20017;-65
2023/05/10 01:42:40;;;;;;;6.03;2.83;;;;;;;14.60;100.00;100621.97;7363195;19;20018;-65
2023/05/10 01:45:14;;;;;;;6.55;2.72;;;;;;;14.62;100.00;100625.28;7362287;19;20105;-63
2023/05/10 01:47:44;;;;;;;6.70;2.60;;;;;;;14.60;100.00;100629.09;7363427;19;20022;-63
2023/05/10 01:50:28;;;;;;;6.18;2.85;;;;;;;14.58;100.00;100626.63;7364734;19;20022;-66
2023/05/10 01:52:59;;;;;;;10.02;2.60;;;;;;;14.55;100.00;100629.66;7364849;19;20018;-64
2023/05/10 01:55:30;;;;;;;5.68;2.17;;;;;;;14.54;100.00;100631.47;7362921;19;20027;-64
2023/05/10 01:58:11;;;;;;;6.35;2.55;;;;;;;14.56;100.00;100631.31;7362610;19;20471;-64
2023/05/10 02:00:42;;;;;;;6.13;2.58;;;;;;;14.54;100.00;100628.81;7360584;19;20015;-65
2023/05/10 02:03:11;;;;;;;6.43;1.95;;;;;;;14.54;100.00;100628.00;7365741;19;20014;-66
2023/05/10 02:05:41;;;;;;;5.63;2.53;;;;;;;14.51;100.00;100634.50;7360533;19;20040;-64
2023/05/10 02:08:09;;;;;;;5.40;2.30;;;;;;;14.53;100.00;100636.94;7365845;19;20045;-64
2023/05/10 02:10:37;;;;;;;7.10;2.85;;;;;;;14.50;100.00;100643.44;7364040;19;20010;-64
2023/05/10 02:13:07;;;;;;;4.50;2.35;;;;;;;14.50;100.00;100639.97;7364590;19;20051;-64
2023/05/10 02:15:35;;;;;;;6.18;2.17;;;;;;;14.49;100.00;100648.91;7359574;19;20022;-65
2023/05/10 02:18:03;;;;;;;6.43;2.92;;;;;;;14.48;100.00;100639.31;7364875;19;20039;-64
2023/05/10 02:20:32;;;;;;;9.23;2.53;;;;;;;14.49;100.00;100638.31;7363626;19;20011;-64
2023/05/10 02:23:00;;;;;;;6.97;2.47;;;;;;;14.48;100.00;100642.78;7365762;19;20011;-63
2023/05/10 02:25:32;;;;;;;6.75;2.42;;;;;;;14.46;100.00;100650.13;7361152;19;20010;-64
2023/05/10 02:28:04;;;;;;;5.43;2.33;;;;;;;14.47;100.00;100643.00;7365464;19;20059;-64
2023/05/10 02:30:34;;;;;;;11.27;2.83;;;;;;;14.49;100.00;100649.75;7361340;19;20891;-64
2023/05/10 02:33:04;;;;;;;4.82;2.28;;;;;;;14.50;100.00;100659.34;7362995;19;20020;-64
2023/05/10 02:35:33;;;;;;;7.72;2.75;;;;;;;14.50;100.00;100656.69;7359985;19;20026;-63
2023/05/10 02:38:01;;;;;;;7.97;2.20;;;;;;;14.46;100.00;100658.06;7367565;19;20018;-63
2023/05/10 02:40:29;;;;;;;4.50;2.05;;;;;;;14.47;100.00;100665.00;7359405;19;20015;-64
2023/05/10 02:42:58;;;;;;;9.63;2.50;;;;;;;14.47;100.00;100665.00;7367178;19;20551;-64
2023/05/10 02:45:31;;;;;;;6.70;1.92;;;;;;;14.48;100.00;100668.44;7360136;19;20014;-64
2023/05/10 02:48:00;;;;;;;4.53;2.10;;;;;;;14.49;100.00;100670.09;7363533;19;20014;-66
2023/05/10 02:50:29;;;;;;;5.57;2.13;;;;;;;14.50;100.00;100672.56;7357943;19;20368;-65
2023/05/10 02:53:02;;;;;;;9.57;2.30;;;;;;;14.51;100.00;100682.16;7365831;19;20154;-65
2023/05/10 02:55:35;;;;;;;6.18;1.98;;;;;;;14.49;100.00;100678.88;7361011;19;20026;-65
2023/05/10 02:58:03;;;;;;;5.70;1.88;;;;;;;14.49;99.95;100688.63;7361496;19;20563;-65
2023/05/10 03:00:31;;;;;;;4.30;1.60;;;;;;;14.48;99.67;100682.50;7360912;19;20606;-65
2023/05/10 03:02:58;;;;;;;4.15;1.90;;;;;;;14.48;99.89;100685.16;7363304;19;20072;-65
2023/05/10 03:05:25;;;;;;;5.18;2.10;;;;;;;14.47;99.78;100680.88;7360970;19;20047;-64
2023/05/10 03:07:54;;;;;;;7.32;1.77;;;;;;;14.47;99.77;100682.72;7366191;19;20094;-65
2023/05/10 03:10:27;;;;;;;6.43;1.65;;;;;;;14.45;99.70;100685.53;7364459;19;20598;-64
2023/05/10 03:13:13;;;;;;;4.13;1.70;;;;;;;14.43;99.49;100694.63;7364331;19;20023;-63
2023/05/10 03:15:58;;;;;;;5.55;2.33;;;;;;;14.41;99.13;100686.91;7357904;19;20487;-63
2023/05/10 03:18:33;;;;;;;5.18;1.83;;;;;;;14.40;99.25;100684.44;7361227;19;20799;-63
2023/05/10 03:21:05;;;;;;;5.82;1.95;;;;;;;14.39;99.69;100677.47;7361555;19;20045;-65
2023/05/10 03:23:39;;;;;;;5.05;2.40;;;;;;;14.37;99.85;100682.16;7361843;19;20031;-63
2023/05/10 03:26:07;;;;;;;5.55;2.10;;;;;;;14.38;99.97;100684.59;7362684;19;20845;-64
2023/05/10 03:28:35;;;;;;;33.72;3.42;;;;;;;14.36;99.87;100683.13;7360855;19;20006;-65
2023/05/10 03:31:05;;;;;;;6.28;1.88;;;;;;;14.35;100.00;100684.94;7358004;19;20374;-64
2023/05/10 03:33:35;;;;;;;5.15;2.20;;;;;;;14.37;100.00;100685.63;7359892;19;20487;-65
2023/05/10 03:36:04;;;;;;;5.90;2.00;;;;;;;14.36;99.82;100680.47;7358784;19;20042;-64
2023/05/10 03:38:31;;;;;;;5.50;2.25;;;;;;;14.33;99.27;100686.09;7359865;19;20394;-65
2023/05/10 03:40:58;;;;;;;5.70;1.65;;;;;;;14.33;99.30;100683.47;7357487;19;20027;-65
2023/05/10 03:43:25;;;;;;;6.75;1.73;;;;;;;14.31;99.14;100685.50;7362727;19;20018;-64
2023/05/10 03:45:52;;;;;;;5.45;2.10;;;;;;;14.29;99.11;100690.94;7358373;19;20021;-64
2023/05/10 03:48:19;;;;;;;5.78;1.80;;;;;;;14.29;99.26;100682.19;7365073;19;20363;-63
2023/05/10 03:50:46;;;;;;;6.53;1.65;;;;;;;14.25;98.89;100692.31;7360035;19;20033;-63
2023/05/10 03:53:13;;;;;;;6.22;2.25;;;;;;;14.24;98.95;100693.31;7363902;19;20098;-64
2023/05/10 03:55:41;;;;;;;5.65;1.70;;;;;;;14.25;98.83;100699.44;7361578;19;20089;-65
2023/05/10 03:58:11;;;;;;;4.57;2.05;;;;;;;14.25;99.06;100699.44;7364419;19;20044;-64
2023/05/10 04:00:43;;;;;;;5.35;1.98;;;;;;;14.24;98.89;100695.13;7358620;19;20014;-64
2023/05/10 04:03:11;;;;;;;4.40;1.80;;;;;;;14.22;99.01;100697.94;7362709;19;20644;-64
2023/05/10 04:05:39;;;;;;;5.82;1.77;;;;;;;14.22;99.18;100699.81;7360332;19;20033;-62
2023/05/10 04:08:09;;;;;;;4.65;2.03;;;;;;;14.21;99.14;100701.63;7359282;19;20022;-64
2023/05/10 04:10:36;;;;;;;8.40;2.03;;;;;;;14.21;99.15;100696.34;7358032;19;20014;-64
2023/05/10 04:13:03;;;;;;;8.02;2.53;;;;;;;14.21;99.03;100704.28;7362920;19;20014;-65
2023/05/10 04:15:30;;;;;;;7.72;2.10;;;;;;;14.22;98.99;100710.41;7357595;19;21619;-64
2023/05/10 04:17:57;;;;;;;3.55;1.58;;;;;;;14.17;98.49;100710.91;7360008;19;20471;-64
2023/05/10 04:20:25;;;;;;;6.18;2.00;;;;;;;14.14;98.49;100703.34;7356126;19;20122;-63
2023/05/10 04:22:52;;;;;;;9.65;2.65;;;;;;;14.09;98.18;100717.09;7360481;19;20077;-63
2023/05/10 04:25:19;;;;;;;5.35;1.83;;;;;;;14.09;98.53;100714.47;7359498;19;20025;-64
2023/05/10 04:27:46;;;;;;;6.22;1.98;;;;;;;14.07;98.72;100716.44;7361693;19;20033;-64
2023/05/10 04:30:14;;;;;;;6.43;1.85;;;;;;;14.05;98.78;100709.69;7355858;19;21111;-64
2023/05/10 04:32:44;;;;;;;7.78;2.42;;;;;;;14.04;98.79;100714.16;7358652;19;21335;-64
2023/05/10 04:35:12;;;;;;;6.05;2.15;;;;;;;14.05;99.43;100718.47;7357151;19;20067;-64
2023/05/10 04:37:39;;;;;;;4.72;1.92;;;;;;;14.04;99.10;100716.00;7362399;19;20019;-64
2023/05/10 04:40:07;;;;;;;6.70;1.90;;;;;;;14.00;98.48;100727.94;7358511;19;20014;-64
2023/05/10 04:42:34;;;;;;;7.65;2.38;;;;;;;14.00;98.98;100725.28;7359739;19;20018;-65
2023/05/10 04:45:01;;;;;;;6.03;1.67;;;;;;;13.99;98.76;100734.22;7356420;19;20041;-65
2023/05/10 04:47:30;;;;;;;7.82;2.58;;;;;;;13.97;98.28;100730.91;7357647;19;21221;-66
2023/05/10 04:49:58;;;;;;;6.35;2.40;;;;;;;13.97;99.02;100734.38;7354734;19;20018;-65
2023/05/10 04:52:26;;;;;;;5.88;2.63;;;;;;;13.97;98.50;100736.19;7360326;19;20038;-64
2023/05/10 04:54:53;;;;;;;9.68;3.53;;;;;;;13.96;98.30;100739.88;7358796;19;20035;-67
2023/05/10 04:57:20;;;;;;;7.25;2.25;;;;;;;13.95;98.26;100746.97;7360446;19;20478;-64
2023/05/10 04:59:47;;;;;;;7.38;2.17;;;;;;;13.93;98.15;100745.50;7358200;19;20311;-64
2023/05/10 05:02:16;;;;;;;8.73;2.60;;;;;;;13.90;97.84;100746.69;7356202;19;20017;-65
2023/05/10 05:04:43;;;;;;;7.40;2.55;;;;;;;13.89;97.75;100752.16;7358883;19;20051;-64
2023/05/10 05:07:10;;;;;;;6.25;2.22;;;;;;;13.86;97.02;100760.44;7355461;19;20011;-65
2023/05/10 05:09:38;;;;;;;8.63;2.35;;;;;;;13.83;96.42;100751.03;7358688;19;20019;-65
2023/05/10 05:12:05;;;;;;;7.72;2.50;;;;;;;13.83;96.64;100755.50;7360746;19;20014;-64
2023/05/10 05:14:32;;;;;;;8.30;2.60;;;;;;;13.85;97.02;100761.44;7367336;19;20799;-63
2023/05/10 05:16:59;;;;;;;6.90;2.97;;;;;;;13.85;96.98;100766.72;7363280;19;21092;-64
2023/05/10 05:19:27;;;;;;;9.43;3.28;;;;;;;13.85;97.00;100770.19;7367409;19;20915;-64
2023/05/10 05:21:55;;;;;;;15.63;4.32;;;;;;;13.85;97.35;100778.13;7366756;19;20003;-65
2023/05/10 05:24:22;;;;;;;10.32;5.22;;;;;;;13.87;97.94;100777.94;7366329;19;20015;-65
2023/05/10 05:26:49;;;;;;;10.82;4.32;;;;;;;13.86;97.67;100785.06;7365113;19;20974;-65
2023/05/10 05:29:17;;;;;;;13.15;5.28;;;;;;;13.85;97.87;100787.88;7365435;19;20025;-68
2023/05/10 05:31:44;;;;;;;15.65;5.68;;;;;;;13.86;97.47;100789.53;7361605;19;21247;-66
2023/05/10 05:34:11;;;;;;;14.35;5.95;;;;;;;13.89;97.55;100800.59;7365793;19;20011;-64
2023/05/10 05:36:38;;;;;;;13.38;5.78;;;;;;;13.90;97.09;100791.66;7363134;19;20015;-64
2023/05/10 05:39:05;;;;;;;13.88;6.07;;;;;;;13.89;97.16;100789.19;7366598;19;20062;-64
2023/05/10 05:41:36;;;;;;;16.42;6.05;;;;;;;13.91;97.87;100790.66;7362177;19;20018;-65
2023/05/10 05:44:05;;;;;;;16.25;6.68;;;;;;;13.94;98.42;100797.41;7366072;19;20006;-64
2023/05/10 05:46:32;;;;;;;13.60;5.70;;;;;;;13.93;97.42;100796.59;7360623;19;20029;-64
2023/05/10 05:48:59;;;;;;;17.50;6.70;;;;;;;13.91;96.52;100795.13;7363468;19;20013;-65
2023/05/10 05:51:26;;;;;;;14.57;5.90;;;;;;;13.93;97.02;100799.22;7364927;19;20858;-65
2023/05/10 05:53:53;;;;;;;14.23;5.68;;;;;;;13.93;96.03;100801.06;7365689;19;20019;-65
2023/05/10 05:56:24;;;;;;;15.73;5.88;;;;;;;13.92;95.72;100805.50;7362417;19;21192;-65
2023/05/10 05:58:51;;;;;;;14.00;5.35;;;;;;;13.90;95.58;100804.06;7364041;19;20026;-65
2023/05/10 06:01:18;;;;;;;12.93;4.90;;;;;;;13.84;95.61;100808.22;7363803;19;20010;-64
2023/05/10 06:03:45;;;;;;;13.18;4.90;;;;;;;13.79;95.66;100809.75;7365477;19;20101;-65
2023/05/10 06:06:13;;;;;;;15.13;6.15;;;;;;;13.77;95.89;100819.66;7364778;19;20094;-64
2023/05/10 06:08:40;;;;;;;10.18;4.65;;;;;;;13.77;95.71;100817.00;7363255;19;20018;-65
2023/05/10 06:11:07;;;;;;;10.75;4.65;;;;;;;13.80;95.89;100814.88;7363902;19;20022;-65
2023/05/10 06:13:37;;;;;;;11.95;4.68;;;;;;;13.84;96.05;100804.75;7363332;19;20019;-65
2023/05/10 06:16:05;;;;;;;14.65;5.53;;;;;;;13.89;95.90;100812.97;7360865;19;20089;-63
2023/05/10 06:18:34;;;;;;;14.30;5.78;;;;;;;13.92;95.96;100813.44;7363620;19;20018;-64
2023/05/10 06:21:01;;;;;;;12.57;5.30;;;;;;;13.96;94.99;100816.59;7363631;19;20033;-63
2023/05/10 06:23:30;;;;;;;10.35;4.53;;;;;;;14.02;94.95;100818.50;7363731;19;20021;-65
2023/05/10 06:25:57;;;;;;;14.05;4.72;;;;;;;14.10;94.35;100816.66;7363785;19;20532;-64
2023/05/10 06:28:24;;;;;;;13.55;4.95;;;;;;;14.25;94.00;100823.81;7365202;19;20334;-64
2023/05/10 06:30:51;;;;;;;11.68;4.95;;;;;;;14.53;93.01;100824.94;7357717;19;20320;-69
2023/05/10 06:33:18;;;;;;;10.43;4.85;;;;;;;14.72;92.26;100824.47;7365056;19;20496;-64
2023/05/10 06:35:46;;;;;;;11.98;4.95;;;;;;;14.81;91.74;100831.31;7363962;19;20025;-64
2023/05/10 06:38:13;;;;;;;12.50;4.78;;;;;;;14.84;90.74;100833.59;7362831;19;20027;-64
2023/05/10 06:40:42;;;;;;;11.30;4.28;;;;;;;15.04;89.07;100844.50;7361786;19;20018;-64
2023/05/10 06:43:09;;;;;;;12.15;4.25;;;;;;;15.24;87.93;100837.66;7360833;19;20085;-65
2023/05/10 06:45:38;;;;;;;10.77;3.42;;;;;;;15.27;87.55;100826.72;7359172;19;21715;-64
2023/05/10 06:48:05;;;;;;;8.55;3.40;;;;;;;15.38;87.52;100828.91;7362613;19;20123;-65
2023/05/10 06:50:35;;;;;;;7.60;3.72;;;;;;;15.50;87.39;100825.75;7362010;19;20003;-64
2023/05/10 06:53:02;;;;;;;12.90;4.00;;;;;;;15.51;86.22;100828.25;7363763;19;20012;-65
2023/05/10 06:55:31;;;;;;;10.95;3.65;;;;;;;15.44;84.69;100839.78;7362014;19;20010;-65
2023/05/10 06:57:58;;;;;;;8.13;3.42;;;;;;;15.31;85.50;100829.81;7362242;19;20467;-64
2023/05/10 07:00:25;;;;;;;9.10;3.20;;;;;;;15.27;87.11;100831.19;7360241;19;20015;-64
2023/05/10 07:02:53;;;;;;;11.02;3.38;;;;;;;15.28;87.40;100836.31;7363612;19;20633;-64
2023/05/10 07:05:20;;;;;;;11.23;3.35;;;;;;;15.33;86.10;100835.75;7363047;19;20018;-65
2023/05/10 07:07:48;;;;;;;10.98;3.13;;;;;;;15.38;86.38;100830.72;7363966;19;20025;-64
2023/05/10 07:10:15;;;;;;;7.93;3.10;;;;;;;15.40;86.34;100834.00;7363964;19;20053;-65
2023/05/10 07:12:42;;;;;;;9.77;3.38;;;;;;;15.40;85.63;100831.34;7322031;19;20676;-64
2023/05/10 07:15:09;;;;;;;11.27;3.35;;;;;;;15.50;85.67;100833.72;7352347;19;20015;-69
2023/05/10 07:17:38;;;;;;;10.15;3.72;;;;;;;15.58;85.62;100837.13;7356026;19;20014;-64
2023/05/10 07:20:09;;;;;;;9.68;3.20;;;;;;;15.57;84.62;100832.84;7356536;19;20028;-65
2023/05/10 07:22:36;;;;;;;10.43;2.60;;;;;;;15.67;85.03;100835.19;7354712;19;20022;-65
2023/05/10 07:25:04;;;;;;;8.48;2.40;;;;;;;15.73;84.38;100840.59;7356666;19;20021;-65
2023/05/10 07:27:31;;;;;;;8.70;2.78;;;;;;;15.77;84.15;100844.50;7357618;19;20329;-65
2023/05/10 07:29:58;;;;;;;8.02;3.05;;;;;;;15.84;85.15;100844.59;7356727;19;20422;-67
2023/05/10 07:32:26;;;;;;;6.72;2.40;;;;;;;15.93;85.50;100851.44;7358088;19;20102;-64
2023/05/10 07:34:53;;;;;;;9.80;3.10;;;;;;;16.03;84.97;100856.44;7357456;19;20443;-65
2023/05/10 07:37:20;;;;;;;10.02;2.20;;;;;;;16.29;84.10;100856.72;7358704;19;20030;-66
2023/05/10 07:39:47;;;;;;;12.55;2.63;;;;;;;16.89;82.50;100866.88;7357343;19;21630;-65
2023/05/10 07:42:15;;;;;;;10.90;2.10;;;;;;;17.88;77.64;100859.47;7356651;19;20021;-65
2023/05/10 07:44:42;;;;;;;5.85;1.58;;;;;;;18.50;73.58;100869.88;7354899;19;20033;-64
2023/05/10 07:47:09;;;;;;;10.10;2.03;;;;;;;18.53;71.63;100869.47;7359944;19;20014;-64
2023/05/10 07:49:38;;;;;;;12.23;2.40;;;;;;;18.33;73.27;100869.44;7359552;19;20014;-65
2023/05/10 07:52:05;;;;;;;7.70;1.52;;;;;;;18.32;72.88;100861.66;7359902;19;20073;-65
2023/05/10 07:54:33;;;;;;;9.23;1.50;;;;;;;18.44;71.85;100865.34;7359125;19;20015;-65
2023/05/10 07:57:01;;;;;;;8.48;1.70;;;;;;;18.90;70.13;100862.72;7356976;19;20021;-64
2023/05/10 07:59:30;;;;;;;8.07;1.63;;;;;;;19.57;69.60;100864.25;7360362;19;20708;-65
2023/05/10 08:01:57;;;;;;;4.25;1.20;;;;;;;19.93;66.42;100866.38;7358515;19;20050;-63
2023/05/10 08:04:25;;;;;;;6.53;1.20;;;;;;;19.84;66.51;100867.66;7358049;19;20117;-69
2023/05/10 08:06:52;;;;;;;8.27;1.38;;;;;;;19.80;66.48;100861.94;7359318;19;20022;-66
2023/05/10 08:09:23;;;;;;;8.90;1.65;;;;;;;20.43;65.23;100864.66;7358449;19;21353;-67
2023/05/10 08:11:51;;;;;;;7.38;1.10;;;;;;;20.78;63.03;100878.38;7362466;19;20014;-65
2023/05/10 08:14:18;;;;;;;5.85;1.40;;;;;;;20.54;63.15;100880.03;7358736;19;20014;-65
2023/05/10 08:16:45;;;;;;;6.22;1.17;;;;;;;20.15;64.02;100877.56;7358512;19;20058;-65
2023/05/10 08:19:18;;;;;;;3.42;1.23;;;;;;;19.72;64.47;100872.84;7360502;19;20367;-64
2023/05/10 08:21:45;;;;;;;7.78;1.48;;;;;;;19.35;66.51;100874.34;7358137;19;20019;-65
2023/05/10 08:24:13;;;;;;;9.25;2.25;;;;;;;18.97;67.60;100881.41;7360411;19;20031;-65
2023/05/10 08:26:40;;;;;;;10.13;1.38;;;;;;;18.71;69.85;100880.38;7360241;19;20426;-65
2023/05/10 08:29:07;;;;;;;8.77;1.48;;;;;;;18.54;69.50;100875.66;7361234;19;20018;-65
2023/05/10 08:31:35;;;;;;;6.18;1.50;;;;;;;18.50;70.00;100875.19;7358574;19;20102;-63
2023/05/10 08:34:02;;;;;;;9.70;2.03;;;;;;;18.43;70.43;100876.22;7361018;19;20078;-65
2023/05/10 08:36:29;;;;;;;5.90;1.83;;;;;;;18.33;71.69;100885.44;7359916;19;20017;-64
2023/05/10 08:38:56;;;;;;;9.43;2.20;;;;;;;18.28;72.54;100879.06;7359537;19;20375;-67
2023/05/10 08:41:25;;;;;;;8.18;1.70;;;;;;;18.08;71.42;100883.53;7359751;19;20015;-64
2023/05/10 08:43:55;;;;;;;8.23;2.43;;;;;;;17.85;71.79;100878.50;7358056;19;20022;-64
2023/05/10 08:46:23;;;;;;;7.18;1.40;;;;;;;17.68;72.74;100882.53;7356247;19;20122;-64
2023/05/10 08:48:51;;;;;;;6.57;1.90;;;;;;;17.60;73.82;100891.50;7367771;19;20605;-64
2023/05/10 08:51:23;;;;;;;6.05;1.67;;;;;;;17.53;73.97;100883.44;7364916;19;20300;-65
2023/05/10 08:53:51;;;;;;;9.95;2.03;;;;;;;17.57;74.85;100883.06;7369870;19;20574;-64
2023/05/10 08:56:19;;;;;;;12.05;1.92;;;;;;;17.60;75.46;100886.19;7368957;19;20040;-65
2023/05/10 08:58:48;;;;;;;6.90;1.88;;;;;;;17.63;74.63;100880.47;7365738;19;20021;-64
2023/05/10 09:01:16;;;;;;;7.32;1.77;;;;;;;17.74;75.15;100887.06;7366701;19;20029;-64
2023/05/10 09:03:47;;;;;;;8.20;1.77;;;;;;;18.25;73.10;100882.94;7368960;19;20024;-65
2023/05/10 09:06:15;;;;;;;7.68;1.85;;;;;;;19.04;70.90;100883.03;7362841;19;20022;-64
2023/05/10 09:08:44;;;;;;;5.22;1.77;;;;;;;19.95;70.39;100883.03;7367534;19;20671;-65
2023/05/10 09:11:12;;;;;;;6.45;1.30;;;;;;;20.88;64.37;100892.09;7363442;19;20101;-65
2023/05/10 09:13:39;;;;;;;9.30;1.60;;;;;;;20.99;62.77;100894.06;7365137;19;20014;-64
2023/05/10 09:16:06;;;;;;;5.55;2.03;;;;;;;20.73;63.10;100891.59;7363851;19;20014;-64
2023/05/10 09:18:49;;;;;;;6.68;2.45;;;;;;;20.25;62.73;100892.13;7365911;19;20045;-65
2023/05/10 09:21:16;;;;;;;6.97;2.05;;;;;;;19.83;64.43;100898.06;7363813;19;20125;-66
2023/05/10 09:23:46;;;;;;;8.95;2.00;;;;;;;19.53;66.31;100895.09;7364259;19;20019;-66
2023/05/10 09:26:14;;;;;;;9.05;2.33;;;;;;;19.29;67.28;100887.72;7363556;19;20324;-65
2023/05/10 09:28:53;;;;;;;8.40;2.03;;;;;;;19.08;67.39;100888.78;7366452;19;20019;-65
2023/05/10 09:31:20;;;;;;;11.13;1.70;;;;;;;18.97;68.63;100889.41;7364407;19;20419;-64
2023/05/10 09:33:49;;;;;;;9.60;1.75;;;;;;;18.94;69.69;100889.81;7363811;19;21815;-64
2023/05/10 09:36:16;;;;;;;6.45;2.08;;;;;;;18.84;69.81;100884.91;7366112;19;20034;-64
2023/05/10 09:38:47;;;;;;;9.57;2.40;;;;;;;18.79;69.15;100887.38;7365685;19;20668;-64
2023/05/10 09:41:21;;;;;;;8.85;2.40;;;;;;;18.83;70.40;100890.44;7366958;19;20105;-64
2023/05/10 09:43:49;;;;;;;6.47;1.70;;;;;;;18.86;69.56;100887.34;7367944;19;20284;-64
2023/05/10 09:46:16;;;;;;;8.23;1.95;;;;;;;18.91;69.10;100890.22;7365824;19;20010;-66
2023/05/10 09:48:47;;;;;;;9.70;1.88;;;;;;;18.90;67.86;100888.56;7360769;19;20018;-65
2023/05/10 09:51:23;;;;;;;7.68;1.70;;;;;;;18.89;68.24;100889.63;7365671;19;20022;-64
2023/05/10 09:54:10;;;;;;;7.85;2.05;;;;;;;18.93;70.39;100890.84;7365384;19;20082;-64
2023/05/10 09:56:40;;;;;;;5.80;1.38;;;;;;;18.94;68.20;100887.97;7362798;19;20025;-64
2023/05/10 09:59:10;;;;;;;7.50;1.75;;;;;;;18.99;68.17;100884.69;7361034;19;20007;-65
2023/05/10 10:01:39;;;;;;;6.60;1.52;;;;;;;19.02;68.56;100894.94;7361730;19;20014;-64
2023/05/10 10:04:08;;;;;;;8.40;1.95;;;;;;;19.02;68.97;100893.09;7361717;19;20048;-64
2023/05/10 10:06:37;;;;;;;6.57;1.45;;;;;;;19.05;68.47;100894.50;7360831;19;20054;-64
2023/05/10 10:09:09;;;;;;;7.38;1.40;;;;;;;19.08;68.37;100891.44;7366708;19;20029;-64
2023/05/10 10:11:37;;;;;;;10.75;1.88;;;;;;;19.10;68.29;100892.88;7361865;19;20014;-65
2023/05/10 10:14:05;;;;;;;6.55;1.65;;;;;;;19.14;66.96;100895.97;7365805;19;20841;-64
2023/05/10 10:16:33;;;;;;;7.22;1.70;;;;;;;19.22;64.62;100891.22;7363986;19;20006;-65
2023/05/10 10:19:00;;;;;;;4.25;1.08;;;;;;;19.22;64.80;100895.72;7364131;19;20453;-64
2023/05/10 10:21:29;;;;;;;7.03;1.60;;;;;;;19.17;64.65;100898.19;7365905;19;20042;-65
2023/05/10 10:23:58;;;;;;;9.02;1.50;;;;;;;19.12;65.54;100896.16;7365590;19;20014;-64
2023/05/10 10:26:26;;;;;;;6.43;1.58;;;;;;;19.15;64.70;100893.06;7366042;19;20035;-64
2023/05/10 10:29:05;;;;;;;6.13;1.85;;;;;;;19.24;65.83;100893.69;7361419;19;20021;-66
2023/05/10 10:31:46;;;;;;;7.55;1.60;;;;;;;19.26;63.36;100896.94;7360999;19;20018;-68
2023/05/10 10:34:29;;;;;;;4.38;1.00;;;;;;;19.31;63.85;100891.81;7363861;19;20018;-64
2023/05/10 10:36:58;;;;;;;5.57;1.05;;;;;;;19.33;62.71;100881.75;7365701;19;20052;-64
2023/05/10 10:39:26;;;;;;;5.65;1.27;;;;;;;19.39;63.57;100886.28;7365016;19;20015;-64
2023/05/10 10:41:55;;;;;;;8.05;1.70;;;;;;;19.39;62.70;100885.44;7364289;19;20029;-65
2023/05/10 10:44:24;;;;;;;3.53;1.13;;;;;;;19.45;63.22;100887.31;7361349;19;21175;-66
2023/05/10 10:47:05;;;;;;;8.38;1.45;;;;;;;19.47;59.63;100882.56;7360532;19;20288;-64
2023/05/10 10:49:41;;;;;;;4.15;1.17;;;;;;;19.49;59.97;100883.19;7365988;19;20416;-65
2023/05/10 10:52:29;;;;;;;6.13;1.20;;;;;;;19.53;60.78;100879.88;7365079;19;20018;-65
2023/05/10 10:54:57;;;;;;;5.47;1.20;;;;;;;19.54;62.03;100884.22;7361781;19;20018;-64
2023/05/10 10:57:26;;;;;;;3.90;1.45;;;;;;;19.56;62.23;100881.31;7363520;19;20036;-64
2023/05/10 11:00:22;;;;;;;6.43;1.88;;;;;;;19.59;62.81;100876.38;7361270;19;20022;-65
2023/05/10 11:02:50;;;;;;;9.55;1.83;;;;;;;19.47;61.67;100877.22;7363416;19;20031;-65
2023/05/10 11:05:37;;;;;;;7.18;1.58;;;;;;;19.36;63.59;100878.66;7359364;19;20595;-64
2023/05/10 11:08:10;;;;;;;5.10;1.00;;;;;;;19.33;60.11;100878.28;7364914;19;20047;-64
2023/05/10 11:10:37;;;;;;;4.32;0.70;;;;;;;19.37;59.32;100864.28;7356809;19;20082;-64
2023/05/10 11:13:08;;;;;;;3.90;0.90;;;;;;;19.46;59.56;100867.56;7362464;19;20074;-64
2023/05/10 11:15:38;;;;;;;5.88;0.80;;;;;;;19.48;56.97;100850.34;7355319;19;21213;-64
2023/05/10 11:18:24;;;;;;;3.75;0.73;;;;;;;19.54;57.75;100867.38;7361555;19;20014;-64
2023/05/10 11:20:55;;;;;;;4.30;0.68;;;;;;;19.56;57.02;100867.97;7361464;19;20483;-64
2023/05/10 11:23:22;;;;;;;6.75;0.85;;;;;;;19.67;57.68;100863.81;7363666;19;20030;-63
2023/05/10 11:25:50;;;;;;;6.00;0.80;;;;;;;19.77;56.80;100872.19;7358769;19;20026;-64
2023/05/10 11:28:19;;;;;;;5.03;0.80;;;;;;;19.80;57.29;100866.44;7363477;19;20020;-64
2023/05/10 11:30:46;;;;;;;3.55;0.75;;;;;;;19.81;58.60;100862.75;7361028;19;20086;-65
2023/05/10 11:33:17;;;;;;;3.72;0.63;;;;;;;19.76;57.80;100860.69;7366257;19;20022;-65